sensor_id;sensor_type;location;lat;lon;timestamp;temperature;humidity
16970;DHT22;8601;48.718;8.992;2024-01-25T00:00:51;8.70;99.90
16970;DHT22;8601;48.718;8.992;2024-01-25T00:03:18;8.70;99.90
16970;DHT22;8601;48.718;8.992;2024-01-25T00:05:45;8.70;99.90
16970;DHT22;8601;48.718;8.992;2024-01-25T00:08:12;8.70;99.90
16970;DHT22;8601;48.718;8.992;2024-01-25T00:10:38;8.70;99.90
16970;DHT22;8601;48.718;8.992;2024-01-25T00:13:05;8.70;99.90
16970;DHT22;8601;48.718;8.992;2024-01-25T00:15:32;8.80;99.90
16970;DHT22;8601;48.718;8.992;2024-01-25T00:18:19;8.80;99.90
16970;DHT22;8601;48.718;8.992;2024-01-25T00:20:46;8.80;99.90
16970;DHT22;8601;48.718;8.992;2024-01-25T00:23:13;8.80;99.90
16970;DHT22;8601;48.718;8.992;2024-01-25T00:25:39;8.80;99.90
16970;DHT22;8601;48.718;8.992;2024-01-25T00:28:06;8.90;99.90
16970;DHT22;8601;48.718;8.992;2024-01-25T00:30:33;8.90;99.90
16970;DHT22;8601;48.718;8.992;2024-01-25T00:33:08;8.90;99.90
16970;DHT22;8601;48.718;8.992;2024-01-25T00:35:37;8.90;99.90
16970;DHT22;8601;48.718;8.992;2024-01-25T00:41:32;8.90;99.90
16970;DHT22;8601;48.718;8.992;2024-01-25T00:43:59;8.90;99.90
16970;DHT22;8601;48.718;8.992;2024-01-25T00:46:26;8.90;99.90
16970;DHT22;8601;48.718;8.992;2024-01-25T00:49:03;8.90;99.90
16970;DHT22;8601;48.718;8.992;2024-01-25T00:51:32;8.90;99.90
16970;DHT22;8601;48.718;8.992;2024-01-25T00:53:59;8.90;99.90
16970;DHT22;8601;48.718;8.992;2024-01-25T00:56:26;8.90;99.90
16970;DHT22;8601;48.718;8.992;2024-01-25T00:58:54;8.90;99.90
16970;DHT22;8601;48.718;8.992;2024-01-25T01:01:22;8.90;99.90
16970;DHT22;8601;48.718;8.992;2024-01-25T01:03:50;8.90;99.90
16970;DHT22;8601;48.718;8.992;2024-01-25T01:06:22;8.90;99.90
16970;DHT22;8601;48.718;8.992;2024-01-25T01:08:50;8.80;99.90
16970;DHT22;8601;48.718;8.992;2024-01-25T01:11:27;8.80;99.90
16970;DHT22;8601;48.718;8.992;2024-01-25T01:13:54;8.80;99.90
16970;DHT22;8601;48.718;8.992;2024-01-25T01:16:21;8.80;99.90
16970;DHT22;8601;48.718;8.992;2024-01-25T01:18:48;8.80;99.90
16970;DHT22;8601;48.718;8.992;2024-01-25T01:21:14;8.80;99.90
16970;DHT22;8601;48.718;8.992;2024-01-25T01:23:41;8.70;99.90
16970;DHT22;8601;48.718;8.992;2024-01-25T01:26:17;8.80;99.90
16970;DHT22;8601;48.718;8.992;2024-01-25T01:28:44;8.70;99.90
16970;DHT22;8601;48.718;8.992;2024-01-25T01:31:21;8.70;99.90
16970;DHT22;8601;48.718;8.992;2024-01-25T01:33:49;8.70;99.90
16970;DHT22;8601;48.718;8.992;2024-01-25T01:36:35;8.70;99.90
16970;DHT22;8601;48.718;8.992;2024-01-25T01:39:02;8.70;99.90
16970;DHT22;8601;48.718;8.992;2024-01-25T01:41:30;8.70;99.90
16970;DHT22;8601;48.718;8.992;2024-01-25T01:43:57;8.70;99.90
16970;DHT22;8601;48.718;8.992;2024-01-25T01:46:32;8.70;99.90
16970;DHT22;8601;48.718;8.992;2024-01-25T01:48:59;8.70;99.90
16970;DHT22;8601;48.718;8.992;2024-01-25T01:51:26;8.70;99.90
16970;DHT22;8601;48.718;8.992;2024-01-25T01:53:55;8.70;99.90
16970;DHT22;8601;48.718;8.992;2024-01-25T01:56:24;8.70;99.90
16970;DHT22;8601;48.718;8.992;2024-01-25T01:58:52;8.70;99.90
16970;DHT22;8601;48.718;8.992;2024-01-25T02:01:20;8.70;99.90
16970;DHT22;8601;48.718;8.992;2024-01-25T02:04:09;8.70;99.90
16970;DHT22;8601;48.718;8.992;2024-01-25T02:06:36;8.60;99.90
16970;DHT22;8601;48.718;8.992;2024-01-25T02:09:04;8.60;99.90
16970;DHT22;8601;48.718;8.992;2024-01-25T02:11:31;8.60;99.90
16970;DHT22;8601;48.718;8.992;2024-01-25T02:13:59;8.60;99.90
16970;DHT22;8601;48.718;8.992;2024-01-25T02:16:25;8.60;99.90
16970;DHT22;8601;48.718;8.992;2024-01-25T02:19:17;8.60;99.90
16970;DHT22;8601;48.718;8.992;2024-01-25T02:21:44;8.60;99.90
16970;DHT22;8601;48.718;8.992;2024-01-25T02:24:12;8.60;99.90
16970;DHT22;8601;48.718;8.992;2024-01-25T02:26:39;8.60;99.90
16970;DHT22;8601;48.718;8.992;2024-01-25T02:29:05;8.60;99.90
16970;DHT22;8601;48.718;8.992;2024-01-25T02:31:33;8.60;99.90
16970;DHT22;8601;48.718;8.992;2024-01-25T02:34:00;8.50;99.90
16970;DHT22;8601;48.718;8.992;2024-01-25T02:36:27;8.60;99.90
16970;DHT22;8601;48.718;8.992;2024-01-25T02:38:54;8.60;99.90
16970;DHT22;8601;48.718;8.992;2024-01-25T02:41:38;8.50;99.90
16970;DHT22;8601;48.718;8.992;2024-01-25T02:44:05;8.40;99.90
16970;DHT22;8601;48.718;8.992;2024-01-25T02:46:32;8.30;99.90
16970;DHT22;8601;48.718;8.992;2024-01-25T02:48:58;8.30;99.90
16970;DHT22;8601;48.718;8.992;2024-01-25T02:51:25;8.20;99.90
16970;DHT22;8601;48.718;8.992;2024-01-25T02:53:52;8.20;99.90
16970;DHT22;8601;48.718;8.992;2024-01-25T02:56:25;8.20;99.90
16970;DHT22;8601;48.718;8.992;2024-01-25T02:58:53;8.10;99.90
16970;DHT22;8601;48.718;8.992;2024-01-25T03:01:20;8.10;99.90
16970;DHT22;8601;48.718;8.992;2024-01-25T03:03:46;8.10;99.90
16970;DHT22;8601;48.718;8.992;2024-01-25T03:06:13;8.10;99.90
16970;DHT22;8601;48.718;8.992;2024-01-25T03:08:40;8.10;99.90
16970;DHT22;8601;48.718;8.992;2024-01-25T03:11:07;8.10;99.90
16970;DHT22;8601;48.718;8.992;2024-01-25T03:13:34;8.10;99.90
16970;DHT22;8601;48.718;8.992;2024-01-25T03:16:02;8.10;99.90
16970;DHT22;8601;48.718;8.992;2024-01-25T03:18:29;8.10;99.90
16970;DHT22;8601;48.718;8.992;2024-01-25T03:20:56;8.10;99.90
16970;DHT22;8601;48.718;8.992;2024-01-25T03:23:23;8.10;99.90
16970;DHT22;8601;48.718;8.992;2024-01-25T03:25:49;8.00;99.90
16970;DHT22;8601;48.718;8.992;2024-01-25T03:28:16;8.10;99.90
16970;DHT22;8601;48.718;8.992;2024-01-25T03:30:44;8.10;99.90
16970;DHT22;8601;48.718;8.992;2024-01-25T03:33:12;8.10;99.90
16970;DHT22;8601;48.718;8.992;2024-01-25T03:35:40;8.10;99.90
16970;DHT22;8601;48.718;8.992;2024-01-25T03:38:07;8.00;99.90
16970;DHT22;8601;48.718;8.992;2024-01-25T03:40:33;8.10;99.90
16970;DHT22;8601;48.718;8.992;2024-01-25T03:43:00;8.00;99.90
16970;DHT22;8601;48.718;8.992;2024-01-25T03:45:27;8.00;99.90
16970;DHT22;8601;48.718;8.992;2024-01-25T03:47:55;8.00;99.90
16970;DHT22;8601;48.718;8.992;2024-01-25T03:50:24;8.00;99.90
16970;DHT22;8601;48.718;8.992;2024-01-25T03:52:50;8.00;99.90
16970;DHT22;8601;48.718;8.992;2024-01-25T03:55:17;8.00;99.90
16970;DHT22;8601;48.718;8.992;2024-01-25T03:57:44;8.00;99.90
16970;DHT22;8601;48.718;8.992;2024-01-25T04:00:12;8.00;99.90
16970;DHT22;8601;48.718;8.992;2024-01-25T04:02:39;8.00;99.90
16970;DHT22;8601;48.718;8.992;2024-01-25T04:05:06;8.10;99.90
16970;DHT22;8601;48.718;8.992;2024-01-25T04:07:35;8.10;99.90
16970;DHT22;8601;48.718;8.992;2024-01-25T04:10:02;8.10;99.90
16970;DHT22;8601;48.718;8.992;2024-01-25T04:12:29;8.00;99.90
16970;DHT22;8601;48.718;8.992;2024-01-25T04:14:57;8.00;99.90
16970;DHT22;8601;48.718;8.992;2024-01-25T04:17:23;8.00;99.90
16970;DHT22;8601;48.718;8.992;2024-01-25T04:19:50;8.00;99.90
16970;DHT22;8601;48.718;8.992;2024-01-25T04:22:17;8.00;99.90
16970;DHT22;8601;48.718;8.992;2024-01-25T04:24:45;8.00;99.90
16970;DHT22;8601;48.718;8.992;2024-01-25T04:27:14;8.00;99.90
16970;DHT22;8601;48.718;8.992;2024-01-25T04:29:41;8.00;99.90
16970;DHT22;8601;48.718;8.992;2024-01-25T04:32:09;7.90;99.90
16970;DHT22;8601;48.718;8.992;2024-01-25T04:34:36;7.90;99.90
16970;DHT22;8601;48.718;8.992;2024-01-25T04:37:03;7.90;99.90
16970;DHT22;8601;48.718;8.992;2024-01-25T04:39:32;8.00;99.90
16970;DHT22;8601;48.718;8.992;2024-01-25T04:42:00;8.00;99.90
16970;DHT22;8601;48.718;8.992;2024-01-25T04:44:27;7.90;99.90
16970;DHT22;8601;48.718;8.992;2024-01-25T04:46:53;7.90;99.90
16970;DHT22;8601;48.718;8.992;2024-01-25T04:49:20;7.90;99.90
16970;DHT22;8601;48.718;8.992;2024-01-25T04:51:47;7.90;99.90
16970;DHT22;8601;48.718;8.992;2024-01-25T04:54:14;7.90;99.90
16970;DHT22;8601;48.718;8.992;2024-01-25T04:56:41;7.80;99.90
16970;DHT22;8601;48.718;8.992;2024-01-25T04:59:09;7.80;99.90
16970;DHT22;8601;48.718;8.992;2024-01-25T05:01:36;7.80;99.90
16970;DHT22;8601;48.718;8.992;2024-01-25T05:04:03;7.90;99.90
16970;DHT22;8601;48.718;8.992;2024-01-25T05:06:30;7.80;99.90
16970;DHT22;8601;48.718;8.992;2024-01-25T05:08:57;7.80;99.90
16970;DHT22;8601;48.718;8.992;2024-01-25T05:11:24;7.80;99.90
16970;DHT22;8601;48.718;8.992;2024-01-25T05:13:51;7.80;99.90
16970;DHT22;8601;48.718;8.992;2024-01-25T05:16:22;7.70;99.90
16970;DHT22;8601;48.718;8.992;2024-01-25T05:18:49;7.70;99.90
16970;DHT22;8601;48.718;8.992;2024-01-25T05:21:16;7.70;99.90
16970;DHT22;8601;48.718;8.992;2024-01-25T05:23:42;7.70;99.90
16970;DHT22;8601;48.718;8.992;2024-01-25T05:26:09;7.70;99.90
16970;DHT22;8601;48.718;8.992;2024-01-25T05:28:36;7.60;99.90
16970;DHT22;8601;48.718;8.992;2024-01-25T05:31:03;7.60;99.90
16970;DHT22;8601;48.718;8.992;2024-01-25T05:33:31;7.50;99.90
16970;DHT22;8601;48.718;8.992;2024-01-25T05:35:58;7.40;99.90
16970;DHT22;8601;48.718;8.992;2024-01-25T05:38:25;7.40;99.90
16970;DHT22;8601;48.718;8.992;2024-01-25T05:40:52;7.30;99.90
16970;DHT22;8601;48.718;8.992;2024-01-25T05:43:19;7.30;99.90
16970;DHT22;8601;48.718;8.992;2024-01-25T05:45:46;7.30;99.90
16970;DHT22;8601;48.718;8.992;2024-01-25T05:48:12;7.30;99.90
16970;DHT22;8601;48.718;8.992;2024-01-25T05:50:41;7.20;99.90
16970;DHT22;8601;48.718;8.992;2024-01-25T05:53:08;7.90;99.90
16970;DHT22;8601;48.718;8.992;2024-01-25T05:55:36;7.70;99.90
16970;DHT22;8601;48.718;8.992;2024-01-25T05:58:03;7.50;99.90
16970;DHT22;8601;48.718;8.992;2024-01-25T06:00:30;7.30;99.90
16970;DHT22;8601;48.718;8.992;2024-01-25T06:02:58;7.10;99.90
16970;DHT22;8601;48.718;8.992;2024-01-25T06:05:25;6.90;99.90
16970;DHT22;8601;48.718;8.992;2024-01-25T06:07:53;6.80;99.90
16970;DHT22;8601;48.718;8.992;2024-01-25T06:10:20;6.70;99.90
16970;DHT22;8601;48.718;8.992;2024-01-25T06:12:47;6.60;99.90
16970;DHT22;8601;48.718;8.992;2024-01-25T06:15:14;6.60;99.90
16970;DHT22;8601;48.718;8.992;2024-01-25T06:17:40;6.50;99.90
16970;DHT22;8601;48.718;8.992;2024-01-25T06:20:08;6.50;99.90
16970;DHT22;8601;48.718;8.992;2024-01-25T06:22:36;6.50;99.90
16970;DHT22;8601;48.718;8.992;2024-01-25T06:25:05;6.50;99.90
16970;DHT22;8601;48.718;8.992;2024-01-25T06:27:34;6.60;99.90
16970;DHT22;8601;48.718;8.992;2024-01-25T06:30:00;6.60;99.90
16970;DHT22;8601;48.718;8.992;2024-01-25T06:32:28;6.60;99.90
16970;DHT22;8601;48.718;8.992;2024-01-25T06:34:55;6.60;99.90
16970;DHT22;8601;48.718;8.992;2024-01-25T06:37:22;6.90;99.90
16970;DHT22;8601;48.718;8.992;2024-01-25T06:39:52;6.70;99.90
16970;DHT22;8601;48.718;8.992;2024-01-25T06:42:20;6.60;99.90
16970;DHT22;8601;48.718;8.992;2024-01-25T06:44:57;6.60;99.90
16970;DHT22;8601;48.718;8.992;2024-01-25T06:47:24;6.50;99.90
16970;DHT22;8601;48.718;8.992;2024-01-25T06:49:51;6.50;99.90
16970;DHT22;8601;48.718;8.992;2024-01-25T06:52:19;6.60;99.90
16970;DHT22;8601;48.718;8.992;2024-01-25T06:54:47;6.50;99.90
16970;DHT22;8601;48.718;8.992;2024-01-25T06:57:14;6.60;99.90
16970;DHT22;8601;48.718;8.992;2024-01-25T06:59:42;6.50;99.90
16970;DHT22;8601;48.718;8.992;2024-01-25T07:02:09;6.50;99.90
16970;DHT22;8601;48.718;8.992;2024-01-25T07:04:37;6.40;99.90
16970;DHT22;8601;48.718;8.992;2024-01-25T07:07:06;6.40;99.90
16970;DHT22;8601;48.718;8.992;2024-01-25T07:09:32;6.40;99.90
16970;DHT22;8601;48.718;8.992;2024-01-25T07:11:59;6.40;99.90
16970;DHT22;8601;48.718;8.992;2024-01-25T07:14:26;6.30;99.90
16970;DHT22;8601;48.718;8.992;2024-01-25T07:16:54;6.30;99.90
16970;DHT22;8601;48.718;8.992;2024-01-25T07:19:21;6.30;99.90
16970;DHT22;8601;48.718;8.992;2024-01-25T07:21:48;6.30;99.90
16970;DHT22;8601;48.718;8.992;2024-01-25T07:24:15;6.20;99.90
16970;DHT22;8601;48.718;8.992;2024-01-25T07:26:41;6.20;99.90
16970;DHT22;8601;48.718;8.992;2024-01-25T07:29:08;6.20;99.90
16970;DHT22;8601;48.718;8.992;2024-01-25T07:31:35;6.20;99.90
16970;DHT22;8601;48.718;8.992;2024-01-25T07:34:03;6.20;99.90
16970;DHT22;8601;48.718;8.992;2024-01-25T07:36:30;6.10;99.90
16970;DHT22;8601;48.718;8.992;2024-01-25T07:38:57;6.10;99.90
16970;DHT22;8601;48.718;8.992;2024-01-25T07:41:23;6.00;99.90
16970;DHT22;8601;48.718;8.992;2024-01-25T07:43:50;5.80;99.90
16970;DHT22;8601;48.718;8.992;2024-01-25T07:46:20;5.70;99.90
16970;DHT22;8601;48.718;8.992;2024-01-25T07:48:47;5.60;99.90
16970;DHT22;8601;48.718;8.992;2024-01-25T07:51:16;5.50;99.90
16970;DHT22;8601;48.718;8.992;2024-01-25T07:53:43;5.40;99.90
16970;DHT22;8601;48.718;8.992;2024-01-25T07:56:10;5.40;99.90
16970;DHT22;8601;48.718;8.992;2024-01-25T07:58:37;5.40;99.90
16970;DHT22;8601;48.718;8.992;2024-01-25T08:01:04;5.40;99.90
16970;DHT22;8601;48.718;8.992;2024-01-25T08:03:32;5.40;99.90
16970;DHT22;8601;48.718;8.992;2024-01-25T08:05:59;5.40;99.90
16970;DHT22;8601;48.718;8.992;2024-01-25T08:08:27;5.60;99.90
16970;DHT22;8601;48.718;8.992;2024-01-25T08:10:54;5.70;99.90
16970;DHT22;8601;48.718;8.992;2024-01-25T08:13:20;5.70;99.90
16970;DHT22;8601;48.718;8.992;2024-01-25T08:15:48;5.70;99.90
16970;DHT22;8601;48.718;8.992;2024-01-25T08:18:16;5.80;99.90
16970;DHT22;8601;48.718;8.992;2024-01-25T08:20:45;5.90;99.90
16970;DHT22;8601;48.718;8.992;2024-01-25T08:23:12;6.00;99.90
16970;DHT22;8601;48.718;8.992;2024-01-25T08:25:40;6.10;99.90
16970;DHT22;8601;48.718;8.992;2024-01-25T08:28:07;6.20;99.90
16970;DHT22;8601;48.718;8.992;2024-01-25T08:30:34;6.20;99.90
16970;DHT22;8601;48.718;8.992;2024-01-25T08:33:03;6.30;99.90
16970;DHT22;8601;48.718;8.992;2024-01-25T08:35:30;6.40;99.90
16970;DHT22;8601;48.718;8.992;2024-01-25T08:37:57;6.40;99.90
16970;DHT22;8601;48.718;8.992;2024-01-25T08:40:23;6.40;99.90
16970;DHT22;8601;48.718;8.992;2024-01-25T08:42:55;6.50;99.90
16970;DHT22;8601;48.718;8.992;2024-01-25T08:45:21;6.50;99.90
16970;DHT22;8601;48.718;8.992;2024-01-25T08:47:48;6.60;99.90
16970;DHT22;8601;48.718;8.992;2024-01-25T08:50:16;6.60;99.90
16970;DHT22;8601;48.718;8.992;2024-01-25T08:52:43;6.70;99.90
16970;DHT22;8601;48.718;8.992;2024-01-25T08:55:10;6.80;99.90
16970;DHT22;8601;48.718;8.992;2024-01-25T08:57:37;6.80;99.90
16970;DHT22;8601;48.718;8.992;2024-01-25T09:00:08;6.90;99.90
16970;DHT22;8601;48.718;8.992;2024-01-25T09:02:36;7.10;99.90
16970;DHT22;8601;48.718;8.992;2024-01-25T09:05:03;7.10;99.90
16970;DHT22;8601;48.718;8.992;2024-01-25T09:07:30;7.20;99.90
16970;DHT22;8601;48.718;8.992;2024-01-25T09:09:57;7.30;99.90
16970;DHT22;8601;48.718;8.992;2024-01-25T09:12:24;7.40;99.90
16970;DHT22;8601;48.718;8.992;2024-01-25T09:14:51;7.50;99.90
16970;DHT22;8601;48.718;8.992;2024-01-25T09:17:19;7.60;99.90
16970;DHT22;8601;48.718;8.992;2024-01-25T09:19:48;7.90;99.90
16970;DHT22;8601;48.718;8.992;2024-01-25T09:22:15;8.70;99.90
16970;DHT22;8601;48.718;8.992;2024-01-25T09:24:42;8.50;99.90
16970;DHT22;8601;48.718;8.992;2024-01-25T09:27:09;8.50;99.90
16970;DHT22;8601;48.718;8.992;2024-01-25T09:29:36;8.60;99.90
16970;DHT22;8601;48.718;8.992;2024-01-25T09:32:05;8.70;99.90
16970;DHT22;8601;48.718;8.992;2024-01-25T09:34:33;8.70;99.90
16970;DHT22;8601;48.718;8.992;2024-01-25T09:37:00;8.70;99.90
16970;DHT22;8601;48.718;8.992;2024-01-25T09:39:27;8.80;99.90
16970;DHT22;8601;48.718;8.992;2024-01-25T09:41:54;8.90;99.90
16970;DHT22;8601;48.718;8.992;2024-01-25T09:44:21;8.90;99.90
16970;DHT22;8601;48.718;8.992;2024-01-25T09:46:48;8.80;99.90
16970;DHT22;8601;48.718;8.992;2024-01-25T09:49:15;8.70;99.90
16970;DHT22;8601;48.718;8.992;2024-01-25T09:51:45;8.70;99.90
16970;DHT22;8601;48.718;8.992;2024-01-25T09:54:12;8.70;99.90
16970;DHT22;8601;48.718;8.992;2024-01-25T09:56:41;8.60;99.90
16970;DHT22;8601;48.718;8.992;2024-01-25T09:59:09;8.60;99.90
16970;DHT22;8601;48.718;8.992;2024-01-25T10:01:37;8.60;99.90
16970;DHT22;8601;48.718;8.992;2024-01-25T10:04:06;8.60;99.90
16970;DHT22;8601;48.718;8.992;2024-01-25T10:06:33;8.70;99.90
16970;DHT22;8601;48.718;8.992;2024-01-25T10:09:01;8.70;99.90
16970;DHT22;8601;48.718;8.992;2024-01-25T10:11:29;8.80;99.90
16970;DHT22;8601;48.718;8.992;2024-01-25T10:14:01;8.80;99.90
16970;DHT22;8601;48.718;8.992;2024-01-25T10:16:29;8.90;99.90
16970;DHT22;8601;48.718;8.992;2024-01-25T10:18:56;8.90;99.90
16970;DHT22;8601;48.718;8.992;2024-01-25T10:21:23;9.00;99.90
16970;DHT22;8601;48.718;8.992;2024-01-25T10:23:50;9.10;99.90
16970;DHT22;8601;48.718;8.992;2024-01-25T10:26:20;9.10;99.90
16970;DHT22;8601;48.718;8.992;2024-01-25T10:28:55;9.00;99.90
16970;DHT22;8601;48.718;8.992;2024-01-25T10:31:23;9.10;99.90
16970;DHT22;8601;48.718;8.992;2024-01-25T10:33:52;9.30;99.90
16970;DHT22;8601;48.718;8.992;2024-01-25T10:36:21;9.40;99.90
16970;DHT22;8601;48.718;8.992;2024-01-25T10:38:48;9.40;99.90
16970;DHT22;8601;48.718;8.992;2024-01-25T10:41:15;9.50;99.90
16970;DHT22;8601;48.718;8.992;2024-01-25T10:43:44;9.80;99.90
16970;DHT22;8601;48.718;8.992;2024-01-25T10:46:11;10.10;99.90
16970;DHT22;8601;48.718;8.992;2024-01-25T10:48:38;10.20;99.90
16970;DHT22;8601;48.718;8.992;2024-01-25T10:51:08;10.50;99.90
16970;DHT22;8601;48.718;8.992;2024-01-25T10:53:36;10.70;99.90
16970;DHT22;8601;48.718;8.992;2024-01-25T10:56:04;10.90;99.90
16970;DHT22;8601;48.718;8.992;2024-01-25T10:58:31;11.00;99.90
16970;DHT22;8601;48.718;8.992;2024-01-25T11:01:02;11.00;99.90
16970;DHT22;8601;48.718;8.992;2024-01-25T11:03:30;10.90;99.90
16970;DHT22;8601;48.718;8.992;2024-01-25T11:06:06;11.20;99.90
16970;DHT22;8601;48.718;8.992;2024-01-25T11:08:34;11.10;99.90
16970;DHT22;8601;48.718;8.992;2024-01-25T11:11:05;11.30;99.90
16970;DHT22;8601;48.718;8.992;2024-01-25T11:13:33;11.40;99.90
16970;DHT22;8601;48.718;8.992;2024-01-25T11:16:15;11.30;99.90
16970;DHT22;8601;48.718;8.992;2024-01-25T11:18:49;11.10;99.90
16970;DHT22;8601;48.718;8.992;2024-01-25T11:21:26;11.20;99.90
16970;DHT22;8601;48.718;8.992;2024-01-25T11:24:01;11.20;99.90
16970;DHT22;8601;48.718;8.992;2024-01-25T11:26:28;11.00;99.90
16970;DHT22;8601;48.718;8.992;2024-01-25T11:28:56;11.00;99.90
16970;DHT22;8601;48.718;8.992;2024-01-25T11:31:27;11.00;99.90
16970;DHT22;8601;48.718;8.992;2024-01-25T11:33:57;10.90;99.90
16970;DHT22;8601;48.718;8.992;2024-01-25T11:36:24;10.90;99.90
16970;DHT22;8601;48.718;8.992;2024-01-25T11:38:57;10.90;99.90
16970;DHT22;8601;48.718;8.992;2024-01-25T11:41:28;11.10;99.90
16970;DHT22;8601;48.718;8.992;2024-01-25T11:44:02;11.00;99.90
16970;DHT22;8601;48.718;8.992;2024-01-25T11:46:31;11.00;99.90
16970;DHT22;8601;48.718;8.992;2024-01-25T11:48:58;10.80;99.90
16970;DHT22;8601;48.718;8.992;2024-01-25T11:51:44;10.70;99.90
16970;DHT22;8601;48.718;8.992;2024-01-25T11:54:11;11.00;99.90
16970;DHT22;8601;48.718;8.992;2024-01-25T11:56:39;11.10;99.90
16970;DHT22;8601;48.718;8.992;2024-01-25T11:59:07;10.90;99.90
16970;DHT22;8601;48.718;8.992;2024-01-25T12:01:36;11.00;99.90
16970;DHT22;8601;48.718;8.992;2024-01-25T12:04:04;11.20;99.90
16970;DHT22;8601;48.718;8.992;2024-01-25T12:06:32;11.30;99.90
16970;DHT22;8601;48.718;8.992;2024-01-25T12:09:07;11.40;99.90
16970;DHT22;8601;48.718;8.992;2024-01-25T12:11:34;11.30;99.90
16970;DHT22;8601;48.718;8.992;2024-01-25T12:14:07;11.40;99.90
16970;DHT22;8601;48.718;8.992;2024-01-25T12:16:35;11.20;99.90
16970;DHT22;8601;48.718;8.992;2024-01-25T12:19:02;11.30;99.60
16970;DHT22;8601;48.718;8.992;2024-01-25T12:21:38;11.20;99.40
16970;DHT22;8601;48.718;8.992;2024-01-25T12:24:06;11.40;99.10
16970;DHT22;8601;48.718;8.992;2024-01-25T12:26:34;11.40;99.60
16970;DHT22;8601;48.718;8.992;2024-01-25T12:29:01;11.60;98.50
16970;DHT22;8601;48.718;8.992;2024-01-25T12:31:29;11.50;97.80
16970;DHT22;8601;48.718;8.992;2024-01-25T12:33:57;11.60;99.10
16970;DHT22;8601;48.718;8.992;2024-01-25T12:36:25;11.40;99.00
16970;DHT22;8601;48.718;8.992;2024-01-25T12:38:51;11.50;98.40
16970;DHT22;8601;48.718;8.992;2024-01-25T12:41:18;11.50;98.10
16970;DHT22;8601;48.718;8.992;2024-01-25T12:43:45;11.50;98.60
16970;DHT22;8601;48.718;8.992;2024-01-25T12:46:12;11.60;98.60
16970;DHT22;8601;48.718;8.992;2024-01-25T12:48:39;11.60;97.50
16970;DHT22;8601;48.718;8.992;2024-01-25T12:51:07;11.60;97.60
16970;DHT22;8601;48.718;8.992;2024-01-25T12:53:34;11.60;98.50
16970;DHT22;8601;48.718;8.992;2024-01-25T12:56:00;11.60;97.70
16970;DHT22;8601;48.718;8.992;2024-01-25T12:58:28;11.60;98.80
16970;DHT22;8601;48.718;8.992;2024-01-25T13:00:55;11.60;97.90
16970;DHT22;8601;48.718;8.992;2024-01-25T13:03:22;11.60;98.10
16970;DHT22;8601;48.718;8.992;2024-01-25T13:05:49;11.60;97.00
16970;DHT22;8601;48.718;8.992;2024-01-25T13:08:17;11.70;96.80
16970;DHT22;8601;48.718;8.992;2024-01-25T13:10:44;11.70;97.40
16970;DHT22;8601;48.718;8.992;2024-01-25T13:13:10;11.60;98.30
16970;DHT22;8601;48.718;8.992;2024-01-25T13:15:37;11.50;96.10
16970;DHT22;8601;48.718;8.992;2024-01-25T13:18:04;11.40;96.60
16970;DHT22;8601;48.718;8.992;2024-01-25T13:20:38;11.40;97.20
16970;DHT22;8601;48.718;8.992;2024-01-25T13:23:05;12.00;99.90
16970;DHT22;8601;48.718;8.992;2024-01-25T13:25:35;12.80;96.40
16970;DHT22;8601;48.718;8.992;2024-01-25T13:28:01;12.60;94.80
16970;DHT22;8601;48.718;8.992;2024-01-25T13:30:28;12.30;94.60
16970;DHT22;8601;48.718;8.992;2024-01-25T13:32:56;12.10;95.60
16970;DHT22;8601;48.718;8.992;2024-01-25T13:35:24;11.90;95.30
16970;DHT22;8601;48.718;8.992;2024-01-25T13:37:58;11.80;94.90
16970;DHT22;8601;48.718;8.992;2024-01-25T13:40:27;11.60;95.80
16970;DHT22;8601;48.718;8.992;2024-01-25T13:42:55;11.50;94.90
16970;DHT22;8601;48.718;8.992;2024-01-25T13:45:28;11.30;95.10
16970;DHT22;8601;48.718;8.992;2024-01-25T13:47:55;11.10;97.50
16970;DHT22;8601;48.718;8.992;2024-01-25T13:50:21;11.00;97.80
16970;DHT22;8601;48.718;8.992;2024-01-25T13:52:48;10.90;97.60
16970;DHT22;8601;48.718;8.992;2024-01-25T13:55:17;11.00;97.70
16970;DHT22;8601;48.718;8.992;2024-01-25T13:57:44;11.00;96.70
16970;DHT22;8601;48.718;8.992;2024-01-25T14:00:16;11.10;96.60
16970;DHT22;8601;48.718;8.992;2024-01-25T14:02:44;11.10;96.40
16970;DHT22;8601;48.718;8.992;2024-01-25T14:05:14;11.20;97.20
16970;DHT22;8601;48.718;8.992;2024-01-25T14:07:46;11.30;97.20
16970;DHT22;8601;48.718;8.992;2024-01-25T14:10:42;11.30;95.70
16970;DHT22;8601;48.718;8.992;2024-01-25T14:13:10;11.20;95.60
16970;DHT22;8601;48.718;8.992;2024-01-25T14:15:44;11.10;95.20
16970;DHT22;8601;48.718;8.992;2024-01-25T14:18:11;11.10;95.20
16970;DHT22;8601;48.718;8.992;2024-01-25T14:20:38;11.10;97.20
16970;DHT22;8601;48.718;8.992;2024-01-25T14:23:04;11.10;96.60
16970;DHT22;8601;48.718;8.992;2024-01-25T14:25:31;11.00;96.90
16970;DHT22;8601;48.718;8.992;2024-01-25T14:27:58;11.00;96.60
16970;DHT22;8601;48.718;8.992;2024-01-25T14:30:25;10.90;96.90
16970;DHT22;8601;48.718;8.992;2024-01-25T14:32:54;10.90;96.80
16970;DHT22;8601;48.718;8.992;2024-01-25T14:35:23;10.90;97.90
16970;DHT22;8601;48.718;8.992;2024-01-25T14:38:01;10.90;97.50
16970;DHT22;8601;48.718;8.992;2024-01-25T14:40:30;10.90;97.00
16970;DHT22;8601;48.718;8.992;2024-01-25T14:43:03;10.90;97.40
16970;DHT22;8601;48.718;8.992;2024-01-25T14:45:30;10.90;97.40
16970;DHT22;8601;48.718;8.992;2024-01-25T14:48:00;10.90;97.10
16970;DHT22;8601;48.718;8.992;2024-01-25T14:50:26;10.70;97.30
16970;DHT22;8601;48.718;8.992;2024-01-25T14:52:53;10.70;97.20
16970;DHT22;8601;48.718;8.992;2024-01-25T14:55:20;10.70;97.80
16970;DHT22;8601;48.718;8.992;2024-01-25T14:57:47;10.70;98.20
16970;DHT22;8601;48.718;8.992;2024-01-25T15:00:14;10.60;98.20
16970;DHT22;8601;48.718;8.992;2024-01-25T15:02:45;10.60;98.80
16970;DHT22;8601;48.718;8.992;2024-01-25T15:05:13;10.60;98.80
16970;DHT22;8601;48.718;8.992;2024-01-25T15:07:40;10.60;99.40
16970;DHT22;8601;48.718;8.992;2024-01-25T15:10:09;10.50;99.10
16970;DHT22;8601;48.718;8.992;2024-01-25T15:12:38;10.50;99.40
16970;DHT22;8601;48.718;8.992;2024-01-25T15:15:06;10.50;99.50
16970;DHT22;8601;48.718;8.992;2024-01-25T15:17:35;10.50;99.90
16970;DHT22;8601;48.718;8.992;2024-01-25T15:20:03;10.30;99.80
16970;DHT22;8601;48.718;8.992;2024-01-25T15:22:32;10.40;99.90
16970;DHT22;8601;48.718;8.992;2024-01-25T15:25:01;10.40;99.50
16970;DHT22;8601;48.718;8.992;2024-01-25T15:27:40;10.40;99.10
16970;DHT22;8601;48.718;8.992;2024-01-25T15:30:10;10.30;99.40
16970;DHT22;8601;48.718;8.992;2024-01-25T15:32:37;10.30;99.90
16970;DHT22;8601;48.718;8.992;2024-01-25T15:35:12;10.20;99.90
16970;DHT22;8601;48.718;8.992;2024-01-25T15:37:43;10.20;99.90
16970;DHT22;8601;48.718;8.992;2024-01-25T15:40:11;10.10;99.90
16970;DHT22;8601;48.718;8.992;2024-01-25T15:42:40;10.80;99.90
16970;DHT22;8601;48.718;8.992;2024-01-25T15:45:08;10.60;99.70
16970;DHT22;8601;48.718;8.992;2024-01-25T15:47:35;10.40;99.90
16970;DHT22;8601;48.718;8.992;2024-01-25T15:50:03;10.20;99.90
16970;DHT22;8601;48.718;8.992;2024-01-25T15:52:31;10.10;99.90
16970;DHT22;8601;48.718;8.992;2024-01-25T15:54:59;10.10;99.90
16970;DHT22;8601;48.718;8.992;2024-01-25T15:57:26;10.00;99.90
16970;DHT22;8601;48.718;8.992;2024-01-25T15:59:53;9.90;99.90
16970;DHT22;8601;48.718;8.992;2024-01-25T16:02:20;9.90;99.90
16970;DHT22;8601;48.718;8.992;2024-01-25T16:04:48;9.90;99.90
16970;DHT22;8601;48.718;8.992;2024-01-25T16:07:15;9.80;99.90